Everdell, Minnesota
Current Conditions -  °F | °C
As of 9:55 AM on Thursday 30 Oct 2014 (Local Time) from KBWP Reporting Station
Overcast Overcast  
Wind Chill: 32°   Ceiling: 400
Heat Index: 39°   Visibility: 1.5mi
Dew Point: 36°   Wind: 13mph
Humidity: 87%   Direction: 360°N
Pressure: 30.14"   Gusts: NA
Location:  46.3422°N, 96.4653°W
Report Text: KBWP 301455Z AUTO 36011KT 1 1/2SM OVC004 04/02 A3014 RMK AO1
Loading
Personal Weather Stations






























Interactive Weather Map
Tropical Storm Tracking
New forecast layout! Learn more

10-Day Weather Forecast

Advertisements
Track Severe Weather on mobile